WWA1800 KGTF-KSLC
Flight info
| Callsign | WWA1800 |
|---|---|
| Flight time | 0h 56m |
| Altitude | 33000 |
| Route | GTF DBS CARTR1 |
| Aircraft | MD88/M-SDFGIRWY/S |
Departure
| Time | 2026-05-05 15:13 |
|---|---|
| Airport | Great Falls International Airport (KGTF) |
Arrival
| Time | 2026-05-05 16:10 |
|---|---|
| Airport | Salt Lake City International Airport (KSLC) |
| Time | Latitude | Longitude | Altitude | Speed | Heading |
|---|---|---|---|---|---|
| 2026-05-05 15:12 | 47.47147 | -111.38072 | 3690 ft | 0 kts | 45° |
| 2026-05-05 15:13 | 47.47292 | -111.37861 | 3689 ft | 76 kts | 44° |
| 2026-05-05 15:13 | 47.47921 | -111.36994 | 3697 ft | 167 kts | 41° |
| 2026-05-05 15:13 | 47.48843 | -111.35580 | 4450 ft | 203 kts | 52° |
| 2026-05-05 15:14 | 47.49315 | -111.33653 | 6285 ft | 196 kts | 71° |
| 2026-05-05 15:14 | 47.49883 | -111.31776 | 7502 ft | 217 kts | 50° |
| 2026-05-05 15:14 | 47.50957 | -111.29923 | 8159 ft | 259 kts | 44° |
| 2026-05-05 15:14 | 47.52249 | -111.27887 | 9195 ft | 271 kts | 44° |
| 2026-05-05 15:15 | 47.53429 | -111.26000 | 10264 ft | 242 kts | 43° |
| 2026-05-05 15:15 | 47.54594 | -111.24122 | 11285 ft | 249 kts | 44° |
| 2026-05-05 15:15 | 47.55561 | -111.21997 | 12328 ft | 250 kts | 60° |
| 2026-05-05 15:15 | 47.56099 | -111.19451 | 13086 ft | 277 kts | 75° |
| 2026-05-05 15:16 | 47.56193 | -111.16406 | 13658 ft | 316 kts | 89° |
| 2026-05-05 15:16 | 47.55806 | -111.13053 | 14220 ft | 353 kts | 101° |
| 2026-05-05 15:16 | 47.54901 | -111.09554 | 15203 ft | 374 kts | 112° |
| 2026-05-05 15:16 | 47.53388 | -111.06312 | 16243 ft | 396 kts | 134° |
| 2026-05-05 15:17 | 47.51032 | -111.04060 | 17319 ft | 414 kts | 159° |
| 2026-05-05 15:17 | 47.48219 | -111.02900 | 18422 ft | 425 kts | 168° |
| 2026-05-05 15:17 | 47.45283 | -111.01973 | 19392 ft | 437 kts | 169° |
| 2026-05-05 15:17 | 47.42250 | -111.01341 | 20386 ft | 443 kts | 184° |
| 2026-05-05 15:18 | 47.39237 | -111.02160 | 21430 ft | 439 kts | 207° |
| 2026-05-05 15:18 | 47.36676 | -111.04460 | 22503 ft | 427 kts | 231° |
| 2026-05-05 15:18 | 47.34507 | -111.07479 | 23430 ft | 438 kts | 229° |
| 2026-05-05 15:18 | 47.32091 | -111.10345 | 24163 ft | 453 kts | 226° |
| 2026-05-05 15:19 | 47.29539 | -111.13188 | 24849 ft | 465 kts | 226° |
| 2026-05-05 15:19 | 47.27125 | -111.16292 | 25711 ft | 452 kts | 240° |
| 2026-05-05 15:19 | 47.25376 | -111.20038 | 26373 ft | 438 kts | 257° |
| 2026-05-05 15:19 | 47.24461 | -111.24215 | 26878 ft | 422 kts | 275° |
| 2026-05-05 15:20 | 47.24405 | -111.28450 | 27393 ft | 411 kts | 288° |
| 2026-05-05 15:20 | 47.24723 | -111.32677 | 27907 ft | 421 kts | 290° |
| 2026-05-05 15:20 | 47.25042 | -111.37031 | 28428 ft | 441 kts | 284° |
| 2026-05-05 15:20 | 47.24637 | -111.41704 | 28969 ft | 482 kts | 266° |
| 2026-05-05 15:21 | 47.23217 | -111.46291 | 29519 ft | 505 kts | 249° |
| 2026-05-05 15:21 | 47.20911 | -111.50281 | 30071 ft | 521 kts | 232° |
| 2026-05-05 15:21 | 47.17939 | -111.53353 | 30530 ft | 541 kts | 216° |
| 2026-05-05 15:21 | 47.14385 | -111.55437 | 30786 ft | 560 kts | 199° |
| 2026-05-05 15:22 | 47.10499 | -111.56297 | 31028 ft | 569 kts | 182° |
| 2026-05-05 15:22 | 47.06554 | -111.55853 | 31274 ft | 568 kts | 166° |
| 2026-05-05 15:22 | 47.02760 | -111.54297 | 31526 ft | 568 kts | 160° |
| 2026-05-05 15:22 | 46.98856 | -111.53159 | 31763 ft | 575 kts | 176° |
| 2026-05-05 15:23 | 46.94862 | -111.53319 | 32023 ft | 574 kts | 190° |
| 2026-05-05 15:23 | 46.90924 | -111.54289 | 32263 ft | 574 kts | 195° |
| 2026-05-05 15:23 | 46.87016 | -111.55445 | 32508 ft | 573 kts | 195° |
| 2026-05-05 15:23 | 46.83112 | -111.56589 | 32762 ft | 571 kts | 194° |
| 2026-05-05 15:24 | 46.79199 | -111.57673 | 33002 ft | 570 kts | 193° |
| 2026-05-05 15:24 | 46.75305 | -111.58682 | 33250 ft | 569 kts | 193° |
| 2026-05-05 15:24 | 46.71389 | -111.59646 | 33305 ft | 571 kts | 192° |
| 2026-05-05 15:25 | 46.63560 | -111.61503 | 33341 ft | 568 kts | 192° |
| 2026-05-05 15:25 | 46.55814 | -111.63360 | 33344 ft | 567 kts | 192° |
| 2026-05-05 15:26 | 46.48048 | -111.65255 | 33345 ft | 565 kts | 192° |
| 2026-05-05 15:26 | 46.40243 | -111.67160 | 33342 ft | 564 kts | 192° |
| 2026-05-05 15:27 | 46.32552 | -111.69030 | 33329 ft | 564 kts | 192° |
| 2026-05-05 15:27 | 46.24819 | -111.70899 | 33321 ft | 563 kts | 192° |
| 2026-05-05 15:28 | 46.17086 | -111.72757 | 33314 ft | 563 kts | 192° |
| 2026-05-05 15:28 | 46.09340 | -111.74606 | 33316 ft | 563 kts | 192° |
| 2026-05-05 15:29 | 46.01623 | -111.76456 | 33305 ft | 561 kts | 192° |
| 2026-05-05 15:29 | 45.93924 | -111.78296 | 33291 ft | 561 kts | 192° |
| 2026-05-05 15:30 | 45.86230 | -111.80130 | 33296 ft | 560 kts | 192° |
| 2026-05-05 15:30 | 45.78554 | -111.81952 | 33311 ft | 558 kts | 192° |
| 2026-05-05 15:31 | 45.70920 | -111.83752 | 33363 ft | 559 kts | 192° |
| 2026-05-05 15:31 | 45.63239 | -111.85563 | 33383 ft | 559 kts | 192° |
| 2026-05-05 15:32 | 45.55568 | -111.87370 | 33373 ft | 558 kts | 192° |
| 2026-05-05 15:32 | 45.47922 | -111.89167 | 33380 ft | 556 kts | 192° |
| 2026-05-05 15:33 | 45.40330 | -111.90944 | 33384 ft | 556 kts | 191° |
| 2026-05-05 15:33 | 45.32681 | -111.92730 | 33388 ft | 557 kts | 191° |
| 2026-05-05 15:34 | 45.25033 | -111.94502 | 33381 ft | 555 kts | 191° |
| 2026-05-05 15:34 | 45.17415 | -111.96270 | 33370 ft | 554 kts | 191° |
| 2026-05-05 15:35 | 45.09825 | -111.98032 | 33319 ft | 553 kts | 191° |
| 2026-05-05 15:35 | 45.02236 | -111.99783 | 33254 ft | 550 kts | 191° |
| 2026-05-05 15:36 | 44.94722 | -112.01504 | 33241 ft | 550 kts | 191° |
| 2026-05-05 15:36 | 44.87168 | -112.03239 | 33140 ft | 551 kts | 191° |
| 2026-05-05 15:36 | 44.83380 | -112.04107 | 32863 ft | 553 kts | 191° |
| 2026-05-05 15:37 | 44.79583 | -112.04976 | 32586 ft | 551 kts | 191° |
| 2026-05-05 15:37 | 44.75797 | -112.05840 | 32314 ft | 549 kts | 191° |
| 2026-05-05 15:37 | 44.72027 | -112.06700 | 32044 ft | 548 kts | 191° |
| 2026-05-05 15:38 | 44.64553 | -112.08406 | 32008 ft | 542 kts | 191° |
| 2026-05-05 15:38 | 44.57090 | -112.10104 | 31983 ft | 544 kts | 191° |
| 2026-05-05 15:39 | 44.49640 | -112.11788 | 31962 ft | 544 kts | 191° |
| 2026-05-05 15:39 | 44.42160 | -112.13472 | 31959 ft | 544 kts | 190° |
| 2026-05-05 15:40 | 44.34682 | -112.15158 | 31946 ft | 544 kts | 191° |
| 2026-05-05 15:40 | 44.27209 | -112.16839 | 31937 ft | 543 kts | 190° |
| 2026-05-05 15:41 | 44.19754 | -112.18513 | 31928 ft | 542 kts | 191° |
| 2026-05-05 15:41 | 44.13556 | -112.19905 | 31927 ft | 542 kts | 191° |
| 2026-05-05 15:41 | 44.08593 | -112.20718 | 31924 ft | 542 kts | 178° |
| 2026-05-05 15:42 | 44.04851 | -112.20209 | 31919 ft | 540 kts | 168° |
| 2026-05-05 15:42 | 43.98684 | -112.18484 | 31926 ft | 538 kts | 165° |
| 2026-05-05 15:43 | 43.91368 | -112.16335 | 31935 ft | 537 kts | 166° |
| 2026-05-05 15:43 | 43.84080 | -112.14392 | 31941 ft | 536 kts | 167° |
| 2026-05-05 15:44 | 43.76744 | -112.12545 | 31943 ft | 535 kts | 167° |
| 2026-05-05 15:44 | 43.69436 | -112.10702 | 31955 ft | 533 kts | 167° |
| 2026-05-05 15:45 | 43.62155 | -112.08845 | 31979 ft | 531 kts | 167° |
| 2026-05-05 15:45 | 43.54898 | -112.06992 | 31985 ft | 530 kts | 167° |
| 2026-05-05 15:46 | 43.47657 | -112.05145 | 31986 ft | 528 kts | 167° |
| 2026-05-05 15:46 | 43.40436 | -112.03309 | 31979 ft | 527 kts | 167° |
| 2026-05-05 15:47 | 43.33236 | -112.01482 | 31953 ft | 525 kts | 167° |
| 2026-05-05 15:47 | 43.26063 | -111.99665 | 31922 ft | 523 kts | 167° |
| 2026-05-05 15:48 | 43.18911 | -111.97868 | 31894 ft | 521 kts | 167° |
| 2026-05-05 15:48 | 43.11786 | -111.96077 | 31875 ft | 519 kts | 168° |
| 2026-05-05 15:49 | 43.04693 | -111.94293 | 31866 ft | 517 kts | 168° |
| 2026-05-05 15:49 | 42.97668 | -111.92528 | 31864 ft | 515 kts | 168° |
| 2026-05-05 15:50 | 42.90628 | -111.90765 | 31855 ft | 513 kts | 168° |
| 2026-05-05 15:50 | 42.83624 | -111.89015 | 31842 ft | 511 kts | 168° |
| 2026-05-05 15:51 | 42.76630 | -111.87255 | 31485 ft | 511 kts | 168° |
| 2026-05-05 15:51 | 42.73144 | -111.86382 | 31228 ft | 507 kts | 168° |
| 2026-05-05 15:51 | 42.69659 | -111.85737 | 30977 ft | 505 kts | 179° |
| 2026-05-05 15:51 | 42.66164 | -111.85992 | 30729 ft | 502 kts | 187° |
| 2026-05-05 15:52 | 42.62695 | -111.86608 | 30475 ft | 500 kts | 189° |
| 2026-05-05 15:52 | 42.59256 | -111.87300 | 30229 ft | 499 kts | 189° |
| 2026-05-05 15:52 | 42.55808 | -111.87996 | 29287 ft | 508 kts | 189° |
| 2026-05-05 15:52 | 42.52276 | -111.88674 | 28480 ft | 512 kts | 188° |
| 2026-05-05 15:53 | 42.48770 | -111.89306 | 28207 ft | 505 kts | 188° |
| 2026-05-05 15:53 | 42.45306 | -111.89902 | 27960 ft | 500 kts | 188° |
| 2026-05-05 15:53 | 42.41866 | -111.90477 | 27685 ft | 496 kts | 187° |
| 2026-05-05 15:53 | 42.38452 | -111.91041 | 27416 ft | 492 kts | 187° |
| 2026-05-05 15:54 | 42.35104 | -111.91594 | 27007 ft | 490 kts | 188° |
| 2026-05-05 15:54 | 42.31726 | -111.92157 | 26550 ft | 488 kts | 188° |
| 2026-05-05 15:54 | 42.28363 | -111.92722 | 26089 ft | 487 kts | 188° |
| 2026-05-05 15:54 | 42.25007 | -111.93291 | 25640 ft | 486 kts | 188° |
| 2026-05-05 15:55 | 42.21649 | -111.93859 | 25195 ft | 485 kts | 188° |
| 2026-05-05 15:55 | 42.18310 | -111.94424 | 24757 ft | 482 kts | 188° |
| 2026-05-05 15:55 | 42.14989 | -111.94985 | 24332 ft | 481 kts | 188° |
| 2026-05-05 15:55 | 42.11672 | -111.95542 | 24003 ft | 479 kts | 188° |
| 2026-05-05 15:56 | 42.08371 | -111.96105 | 23924 ft | 475 kts | 188° |
| 2026-05-05 15:56 | 42.05174 | -111.96647 | 23840 ft | 450 kts | 188° |
| 2026-05-05 15:56 | 42.02108 | -111.97163 | 23755 ft | 440 kts | 188° |
| 2026-05-05 15:56 | 41.99067 | -111.97673 | 23673 ft | 440 kts | 188° |
| 2026-05-05 15:57 | 41.96020 | -111.98186 | 23600 ft | 441 kts | 188° |
| 2026-05-05 15:57 | 41.92975 | -111.98699 | 23517 ft | 441 kts | 188° |
| 2026-05-05 15:57 | 41.89923 | -111.99213 | 23419 ft | 441 kts | 188° |
| 2026-05-05 15:57 | 41.86877 | -111.99725 | 23320 ft | 442 kts | 188° |
| 2026-05-05 15:58 | 41.83868 | -112.00231 | 23217 ft | 442 kts | 188° |
| 2026-05-05 15:58 | 41.80808 | -112.00745 | 23105 ft | 442 kts | 188° |
| 2026-05-05 15:58 | 41.77759 | -112.01251 | 22998 ft | 443 kts | 188° |
| 2026-05-05 15:58 | 41.74696 | -112.01737 | 22880 ft | 443 kts | 187° |
| 2026-05-05 15:59 | 41.71633 | -112.02207 | 22763 ft | 443 kts | 187° |
| 2026-05-05 15:59 | 41.68596 | -112.02669 | 22577 ft | 436 kts | 187° |
| 2026-05-05 15:59 | 41.65578 | -112.03131 | 21986 ft | 436 kts | 187° |
| 2026-05-05 15:59 | 41.62581 | -112.03594 | 21377 ft | 433 kts | 187° |
| 2026-05-05 16:00 | 41.59595 | -112.04063 | 20759 ft | 431 kts | 187° |
| 2026-05-05 16:00 | 41.56613 | -112.04530 | 20161 ft | 431 kts | 186° |
| 2026-05-05 16:00 | 41.53609 | -112.04698 | 19577 ft | 434 kts | 180° |
| 2026-05-05 16:00 | 41.50581 | -112.04584 | 19003 ft | 436 kts | 178° |
| 2026-05-05 16:01 | 41.47547 | -112.04397 | 18434 ft | 437 kts | 177° |
| 2026-05-05 16:01 | 41.44499 | -112.04206 | 17812 ft | 438 kts | 178° |
| 2026-05-05 16:01 | 41.41444 | -112.04032 | 17167 ft | 440 kts | 178° |
| 2026-05-05 16:01 | 41.38405 | -112.03884 | 16912 ft | 432 kts | 178° |
| 2026-05-05 16:02 | 41.35350 | -112.03759 | 16813 ft | 450 kts | 179° |
| 2026-05-05 16:02 | 41.32151 | -112.03642 | 16729 ft | 465 kts | 178° |
| 2026-05-05 16:02 | 41.28945 | -112.03407 | 16647 ft | 470 kts | 176° |
| 2026-05-05 16:02 | 41.25713 | -112.03044 | 16535 ft | 460 kts | 174° |
| 2026-05-05 16:03 | 41.22581 | -112.02616 | 16431 ft | 446 kts | 174° |
| 2026-05-05 16:03 | 41.19538 | -112.02201 | 16334 ft | 434 kts | 174° |
| 2026-05-05 16:03 | 41.16565 | -112.01826 | 16230 ft | 423 kts | 175° |
| 2026-05-05 16:03 | 41.13804 | -112.01503 | 16174 ft | 364 kts | 175° |
| 2026-05-05 16:04 | 41.11538 | -112.01247 | 16090 ft | 291 kts | 175° |
| 2026-05-05 16:04 | 41.09678 | -112.01037 | 15937 ft | 257 kts | 175° |
| 2026-05-05 16:04 | 41.07971 | -112.00842 | 15240 ft | 234 kts | 175° |
| 2026-05-05 16:04 | 41.06338 | -112.00654 | 13926 ft | 246 kts | 175° |
| 2026-05-05 16:05 | 41.04506 | -112.00441 | 12419 ft | 276 kts | 175° |
| 2026-05-05 16:05 | 41.02554 | -112.00209 | 10960 ft | 285 kts | 176° |
| 2026-05-05 16:05 | 41.00583 | -111.99977 | 9675 ft | 281 kts | 176° |
| 2026-05-05 16:05 | 40.98764 | -111.99767 | 9067 ft | 236 kts | 176° |
| 2026-05-05 16:06 | 40.97338 | -111.99598 | 8849 ft | 182 kts | 177° |
| 2026-05-05 16:06 | 40.96172 | -111.99456 | 8653 ft | 165 kts | 176° |
| 2026-05-05 16:06 | 40.94992 | -111.99326 | 8236 ft | 170 kts | 177° |
| 2026-05-05 16:06 | 40.93830 | -111.99205 | 7939 ft | 169 kts | 177° |
| 2026-05-05 16:07 | 40.92657 | -111.99074 | 7470 ft | 169 kts | 176° |
| 2026-05-05 16:07 | 40.91446 | -111.98943 | 6570 ft | 175 kts | 175° |
| 2026-05-05 16:07 | 40.90302 | -111.98814 | 6231 ft | 160 kts | 175° |
| 2026-05-05 16:07 | 40.89129 | -111.98679 | 6016 ft | 166 kts | 175° |
| 2026-05-05 16:08 | 40.88060 | -111.98558 | 5755 ft | 145 kts | 175° |
| 2026-05-05 16:08 | 40.87004 | -111.98435 | 5513 ft | 155 kts | 175° |
| 2026-05-05 16:08 | 40.85940 | -111.98318 | 5266 ft | 155 kts | 174° |
| 2026-05-05 16:08 | 40.84872 | -111.98188 | 4969 ft | 150 kts | 174° |
| 2026-05-05 16:09 | 40.83868 | -111.98063 | 4667 ft | 140 kts | 175° |
| 2026-05-05 16:09 | 40.82913 | -111.97960 | 4547 ft | 145 kts | 176° |
| 2026-05-05 16:09 | 40.81893 | -111.97809 | 4444 ft | 143 kts | 174° |
| 2026-05-05 16:09 | 40.80946 | -111.97705 | 4297 ft | 131 kts | 174° |
| 2026-05-05 16:10 | 40.80079 | -111.97617 | 4242 ft | 115 kts | 174° |
| 2026-05-05 16:10 | 40.79569 | -111.97552 | 4234 ft | 56 kts | 176° |
| 2026-05-05 16:10 | 40.79235 | -111.97546 | 4237 ft | 40 kts | 185° |
| 2026-05-05 16:10 | 40.79087 | -111.97599 | 4239 ft | 17 kts | 198° |
| 2026-05-05 16:11 | 40.79061 | -111.97610 | 4239 ft | 0 kts | 198° |
| 2026-05-05 16:11 | 40.78965 | -111.97705 | 4241 ft | 8 kts | 253° |
| 2026-05-05 16:12 | 40.78960 | -111.97813 | 4239 ft | 14 kts | 271° |
| 2026-05-05 16:12 | 40.78963 | -111.97897 | 4237 ft | 1 kts | 261° |
| 2026-05-05 16:13 | 40.78916 | -111.97987 | 4237 ft | 8 kts | 193° |
| 2026-05-05 16:13 | 40.78857 | -111.97990 | 4238 ft | 8 kts | 182° |
| 2026-05-05 16:13 | 40.78834 | -111.97986 | 4238 ft | 4 kts | 158° |
| 2026-05-05 16:14 | 40.78819 | -111.97942 | 4239 ft | 2 kts | 89° |
| 2026-05-05 16:14 | 40.78819 | -111.97941 | 4239 ft | 0 kts | 89° |